Time;durP1;ratioP1;P1;durP2;ratioP2;P2;SDS_P1;SDS_P2;PMS_P1;PMS_P2;Temp;Humidity;BMP_temperature;BMP_pressure;BME280_temperature;BME280_humidity;BME280_pressure;Samples;Min_cycle;Max_cycle;Signal;HPM_P1;HPM_P2
2023/08/30 00:00:32;;;;;;;5.20;3.97;;;;;;;13.08;87.24;100811.16;5051203;28;20075;-87
2023/08/30 00:02:58;;;;;;;4.93;3.72;;;;;;;13.03;87.31;100796.53;5033745;28;20033;-88
2023/08/30 00:05:23;;;;;;;5.50;3.83;;;;;;;13.02;87.50;100793.94;5041554;28;20108;-88
2023/08/30 00:07:48;;;;;;;5.65;4.10;;;;;;;13.01;87.52;100805.31;5050067;28;20033;-88
2023/08/30 00:10:14;;;;;;;5.90;4.03;;;;;;;12.98;87.77;100792.38;5050283;28;20021;-88
2023/08/30 00:12:39;;;;;;;6.65;3.95;;;;;;;12.94;87.77;100791.63;5047276;28;20033;-88
2023/08/30 00:15:05;;;;;;;4.88;3.78;;;;;;;12.93;88.23;100794.28;5045988;28;20057;-87
2023/08/30 00:17:30;;;;;;;7.93;4.10;;;;;;;12.89;88.18;100789.19;5051407;28;20415;-88
2023/08/30 00:19:55;;;;;;;6.25;3.78;;;;;;;12.86;88.28;100784.06;5039691;28;20095;-88
2023/08/30 00:22:22;;;;;;;6.63;4.25;;;;;;;12.85;88.25;100782.34;5043392;28;20036;-87
2023/08/30 00:24:47;;;;;;;7.97;4.35;;;;;;;12.83;88.34;100778.94;5049482;28;20519;-88
2023/08/30 00:27:12;;;;;;;6.47;4.47;;;;;;;12.81;88.47;100778.16;5050247;28;20025;-88
2023/08/30 00:29:38;;;;;;;6.60;4.45;;;;;;;12.81;88.73;100780.75;5048402;28;20419;-87
2023/08/30 00:32:03;;;;;;;5.30;4.13;;;;;;;12.80;88.48;100775.59;5049820;28;20025;-88
2023/08/30 00:34:29;;;;;;;5.70;4.07;;;;;;;12.79;88.32;100773.91;5048007;28;20021;-87
2023/08/30 00:36:54;;;;;;;5.70;4.20;;;;;;;12.78;88.39;100774.81;5041495;28;20033;-88
2023/08/30 00:39:19;;;;;;;6.32;4.20;;;;;;;12.76;87.71;100767.03;5051162;28;20116;-88
2023/08/30 00:41:45;;;;;;;6.57;4.22;;;;;;;12.77;87.89;100767.88;5046769;28;20071;-88
2023/08/30 00:44:10;;;;;;;6.30;4.07;;;;;;;12.76;87.69;100767.03;5050999;28;20104;-88
2023/08/30 00:46:36;;;;;;;5.40;3.95;;;;;;;12.76;87.16;100767.03;5050170;28;20021;-88
2023/08/30 00:49:02;;;;;;;5.82;4.20;;;;;;;12.75;87.10;100765.34;5052525;28;20040;-88
2023/08/30 00:51:27;;;;;;;6.43;4.45;;;;;;;12.73;87.00;100765.38;5050487;28;20052;-88
2023/08/30 00:53:55;;;;;;;5.38;4.05;;;;;;;12.71;86.99;100761.13;5053658;28;20476;-88
2023/08/30 00:56:21;;;;;;;7.72;4.50;;;;;;;12.68;87.15;100766.44;5045699;28;20392;-88
2023/08/30 00:58:48;;;;;;;6.32;4.40;;;;;;;12.64;86.75;100762.28;5053376;28;20481;-88
2023/08/30 01:01:15;;;;;;;7.32;4.50;;;;;;;12.62;87.33;100753.63;5054231;28;20025;-88
2023/08/30 01:03:40;;;;;;;6.88;4.35;;;;;;;12.57;87.25;100761.59;5052556;28;20033;-88
2023/08/30 01:06:06;;;;;;;6.38;4.25;;;;;;;12.55;86.83;100756.47;5054135;28;20395;-87
2023/08/30 01:08:31;;;;;;;5.72;4.30;;;;;;;12.51;87.12;100752.25;5052992;28;20476;-88
2023/08/30 01:11:02;;;;;;;6.88;4.38;;;;;;;12.46;87.62;100748.97;5052771;28;20029;-87
2023/08/30 01:13:30;;;;;;;8.35;5.38;;;;;;;12.42;87.70;100757.81;5054120;28;20036;-87
2023/08/30 01:15:57;;;;;;;6.18;4.57;;;;;;;12.39;87.76;100763.13;5054653;28;20473;-88
2023/08/30 01:18:26;;;;;;;7.28;4.88;;;;;;;12.37;87.82;100754.50;5053453;28;20017;-88
2023/08/30 01:20:53;;;;;;;7.43;5.13;;;;;;;12.36;87.68;100752.78;5052945;28;20039;-88
2023/08/30 01:23:29;;;;;;;7.65;5.18;;;;;;;12.34;87.61;100745.03;5055354;28;20112;-88
2023/08/30 01:25:57;;;;;;;7.22;5.28;;;;;;;12.35;87.89;100743.25;5053323;28;20071;-87
2023/08/30 01:28:24;;;;;;;11.00;5.32;;;;;;;12.34;87.90;100739.81;5053018;28;20029;-88
2023/08/30 01:30:54;;;;;;;6.82;4.80;;;;;;;12.34;87.62;100742.41;5053505;28;20499;-87
2023/08/30 01:33:20;;;;;;;8.65;5.05;;;;;;;12.33;87.95;100739.84;5053038;28;20029;-88
2023/08/30 01:35:46;;;;;;;8.07;5.45;;;;;;;12.32;87.80;100738.13;5052809;28;20107;-88
2023/08/30 01:38:12;;;;;;;8.02;5.50;;;;;;;12.28;88.01;100751.31;5044325;28;20417;-88
2023/08/30 01:40:40;;;;;;;7.97;5.53;;;;;;;12.25;88.24;100747.94;5054592;28;20033;-87
2023/08/30 01:43:07;;;;;;;7.75;5.38;;;;;;;12.21;88.11;100747.19;5055217;28;20036;-87
2023/08/30 01:45:36;;;;;;;7.60;4.72;;;;;;;12.18;88.34;100742.06;5055294;28;20029;-87
2023/08/30 01:48:03;;;;;;;8.45;5.43;;;;;;;12.16;88.89;100745.66;5053928;28;20104;-88
2023/08/30 01:50:28;;;;;;;8.25;4.80;;;;;;;12.12;88.74;100737.94;5052557;28;20029;-87
2023/08/30 01:52:54;;;;;;;8.35;4.88;;;;;;;12.10;89.25;100747.56;5039214;28;20549;-88
2023/08/30 01:55:22;;;;;;;7.60;4.55;;;;;;;12.09;89.51;100742.41;5038925;28;20590;-87
2023/08/30 01:57:47;;;;;;;6.47;4.85;;;;;;;12.06;89.57;100745.94;5050974;28;20496;-88
2023/08/30 02:00:13;;;;;;;8.50;5.15;;;;;;;12.03;90.04;100745.22;5053075;28;20028;-88
2023/08/30 02:02:38;;;;;;;6.55;4.75;;;;;;;12.01;89.86;100745.28;5054629;28;20499;-87
2023/08/30 02:05:04;;;;;;;7.88;4.85;;;;;;;11.99;89.83;100744.47;5050379;28;20537;-87
2023/08/30 02:07:54;;;;;;;7.07;5.07;;;;;;;11.98;90.16;100745.34;5046842;28;20013;-87
2023/08/30 02:10:27;;;;;;;7.05;4.50;;;;;;;11.96;90.30;100747.97;5045469;28;20020;-88
2023/08/30 02:12:55;;;;;;;7.85;4.70;;;;;;;11.94;90.53;100741.13;5053344;28;20024;-87
2023/08/30 02:15:24;;;;;;;7.30;4.85;;;;;;;11.91;90.65;100731.66;5052118;28;20167;-87
2023/08/30 02:17:50;;;;;;;6.78;4.25;;;;;;;11.89;90.63;100733.44;5052624;28;20453;-87
2023/08/30 02:20:16;;;;;;;6.65;4.78;;;;;;;11.87;90.89;100730.03;5052721;28;20033;-87
2023/08/30 02:22:41;;;;;;;8.02;4.85;;;;;;;11.86;91.01;100732.72;5054059;28;20055;-87
2023/08/30 02:25:07;;;;;;;6.28;4.50;;;;;;;11.86;90.74;100723.13;5053566;28;20029;-88
2023/08/30 02:27:34;;;;;;;6.95;4.75;;;;;;;11.88;91.06;100723.94;5047065;28;20025;-87
2023/08/30 02:30:00;;;;;;;7.13;5.07;;;;;;;11.85;91.05;100721.41;5049824;28;20021;-87
2023/08/30 02:32:25;;;;;;;6.95;4.90;;;;;;;11.84;91.10;100719.72;5052052;28;20033;-88
2023/08/30 02:34:52;;;;;;;7.97;5.10;;;;;;;11.81;91.14;100725.88;5047728;28;20028;-87
2023/08/30 02:37:18;;;;;;;7.95;4.72;;;;;;;11.78;91.17;100718.16;5051170;28;20109;-87
2023/08/30 02:39:43;;;;;;;7.30;4.95;;;;;;;11.76;92.10;100713.91;5050062;28;20227;-88
2023/08/30 02:42:08;;;;;;;6.32;4.53;;;;;;;11.76;91.75;100712.16;5051231;28;20108;-87
2023/08/30 02:44:33;;;;;;;8.00;4.78;;;;;;;11.75;91.73;100709.59;5052122;28;20024;-87
2023/08/30 02:46:59;;;;;;;7.18;5.22;;;;;;;11.74;92.12;100707.91;5050102;28;20025;-87
2023/08/30 02:49:24;;;;;;;7.63;5.13;;;;;;;11.71;92.17;100708.81;5052103;28;20538;-88
2023/08/30 02:51:49;;;;;;;7.70;5.40;;;;;;;11.70;92.27;100709.72;5052018;28;20032;-87
2023/08/30 02:54:15;;;;;;;8.73;5.15;;;;;;;11.68;92.29;100704.56;5053849;28;20017;-87
2023/08/30 02:56:43;;;;;;;8.40;5.15;;;;;;;11.68;92.79;100701.97;5049969;28;20468;-88
2023/08/30 02:59:08;;;;;;;7.53;5.05;;;;;;;11.69;92.69;100695.88;5051275;28;20093;-87
2023/08/30 03:01:34;;;;;;;8.73;5.25;;;;;;;11.69;92.97;100695.88;5050231;28;20042;-87
2023/08/30 03:03:59;;;;;;;7.90;5.43;;;;;;;11.71;93.14;100692.34;5051310;28;20056;-87
2023/08/30 03:06:24;;;;;;;7.18;5.13;;;;;;;11.74;92.84;100689.66;5051195;28;20035;-87
2023/08/30 03:08:49;;;;;;;8.25;5.30;;;;;;;11.77;93.23;100686.94;5053212;28;20468;-87
2023/08/30 03:11:15;;;;;;;7.20;5.07;;;;;;;11.81;93.12;100678.09;5051107;28;20036;-87
2023/08/30 03:13:40;;;;;;;8.23;5.22;;;;;;;11.83;93.21;100687.59;5052053;28;20075;-87
2023/08/30 03:16:16;;;;;;;8.40;5.75;;;;;;;11.83;93.29;100676.31;5049555;28;20020;-87
2023/08/30 03:18:42;;;;;;;7.18;5.13;;;;;;;11.88;93.37;100683.97;5053113;28;20036;-87
2023/08/30 03:21:08;;;;;;;9.43;5.88;;;;;;;11.88;93.45;100679.63;5052259;28;20033;-87
2023/08/30 03:23:35;;;;;;;7.50;5.60;;;;;;;11.90;93.63;100683.03;5050523;28;20031;-88
2023/08/30 03:26:10;;;;;;;8.15;5.63;;;;;;;11.93;94.13;100682.06;5049956;28;20032;-87
2023/08/30 03:28:36;;;;;;;7.55;5.55;;;;;;;11.95;93.86;100675.91;5052359;28;20031;-87
2023/08/30 03:31:01;;;;;;;8.68;5.43;;;;;;;11.98;93.57;100675.81;5051916;28;20024;-88
2023/08/30 03:33:26;;;;;;;8.57;5.93;;;;;;;12.00;93.07;100673.16;5051447;28;20024;-88
2023/08/30 03:35:52;;;;;;;9.60;5.40;;;;;;;12.02;93.05;100673.09;5051428;28;20434;-87
2023/08/30 03:38:17;;;;;;;8.30;5.28;;;;;;;12.01;93.34;100658.34;5050813;28;20372;-88
2023/08/30 03:40:42;;;;;;;8.48;5.40;;;;;;;11.99;93.21;100648.84;5052059;28;20032;-87
2023/08/30 03:43:07;;;;;;;8.38;5.43;;;;;;;11.99;93.19;100645.38;5051165;28;20021;-87
2023/08/30 03:45:36;;;;;;;7.18;5.30;;;;;;;11.98;93.27;100643.66;5052241;28;20035;-87
2023/08/30 03:48:03;;;;;;;8.57;5.30;;;;;;;11.97;93.57;100642.78;5046964;28;20032;-88
2023/08/30 03:50:28;;;;;;;7.45;5.13;;;;;;;11.95;93.84;100639.41;5046105;28;20017;-87
2023/08/30 03:52:54;;;;;;;8.75;5.60;;;;;;;11.95;93.81;100634.19;5046387;28;20033;-88
2023/08/30 03:55:19;;;;;;;7.47;5.40;;;;;;;11.94;93.69;100626.41;5040907;28;20029;-87
2023/08/30 03:57:44;;;;;;;7.18;5.30;;;;;;;11.93;93.68;100622.09;5045387;28;20075;-88
2023/08/30 04:00:10;;;;;;;7.72;5.35;;;;;;;11.91;93.95;100616.94;5043532;28;20032;-88
2023/08/30 04:02:36;;;;;;;7.90;5.40;;;;;;;11.89;94.23;100613.53;5052391;28;20024;-88
2023/08/30 04:05:01;;;;;;;7.93;5.57;;;;;;;11.91;94.46;100605.66;5051541;28;20487;-88
2023/08/30 04:07:26;;;;;;;8.95;5.90;;;;;;;11.92;94.43;100608.22;5052542;28;20075;-88
2023/08/30 04:09:52;;;;;;;9.15;5.90;;;;;;;11.91;95.08;100603.06;5052047;28;20029;-88
2023/08/30 04:12:17;;;;;;;8.63;5.53;;;;;;;11.89;94.48;100595.28;5055446;28;20044;-87
2023/08/30 04:14:42;;;;;;;7.80;5.32;;;;;;;11.88;94.90;100590.97;5056874;28;20036;-87
2023/08/30 04:17:07;;;;;;;7.65;5.80;;;;;;;11.86;95.09;100587.56;5053080;28;20025;-87
2023/08/30 04:19:33;;;;;;;8.20;6.07;;;;;;;11.83;95.34;100579.84;5048731;28;20033;-88
2023/08/30 04:21:58;;;;;;;9.27;5.90;;;;;;;11.81;95.76;100574.72;5055524;28;20024;-88
2023/08/30 04:24:23;;;;;;;8.77;6.20;;;;;;;11.82;95.67;100583.38;5049506;28;20028;-87
2023/08/30 04:26:51;;;;;;;9.10;6.35;;;;;;;11.85;96.21;100585.88;5048726;28;20028;-88
2023/08/30 04:29:17;;;;;;;8.15;6.07;;;;;;;11.89;96.39;100591.81;5048525;28;20033;-88
2023/08/30 04:31:43;;;;;;;7.80;5.93;;;;;;;11.92;96.88;100587.38;5053698;28;20036;-88
2023/08/30 04:34:09;;;;;;;10.52;6.65;;;;;;;11.90;97.02;100576.16;5043295;28;20059;-87
2023/08/30 04:36:34;;;;;;;9.68;6.85;;;;;;;11.89;97.01;100577.03;5052101;28;20108;-88
2023/08/30 04:38:59;;;;;;;9.88;7.05;;;;;;;11.87;97.02;100570.19;5050157;28;20072;-88
2023/08/30 04:41:24;;;;;;;10.23;7.22;;;;;;;11.87;97.14;100576.25;5056571;28;20036;-88
2023/08/30 04:43:50;;;;;;;9.13;6.80;;;;;;;11.86;97.05;100577.16;5055457;28;20728;-87
2023/08/30 04:46:15;;;;;;;12.73;6.95;;;;;;;11.88;96.84;100583.16;5050137;28;20032;-87
2023/08/30 04:48:40;;;;;;;12.45;7.25;;;;;;;11.88;97.14;100572.75;5045131;28;20033;-88
2023/08/30 04:51:05;;;;;;;11.65;7.32;;;;;;;11.92;97.61;100582.16;5069420;28;20036;-87
2023/08/30 04:53:31;;;;;;;10.65;7.63;;;;;;;11.95;97.69;100583.78;5048887;28;20051;-88
2023/08/30 04:55:56;;;;;;;11.73;7.40;;;;;;;11.95;98.12;100576.84;5049416;28;20484;-88
2023/08/30 04:58:21;;;;;;;10.38;7.00;;;;;;;11.98;97.80;100574.13;5049877;28;20040;-88
2023/08/30 05:00:47;;;;;;;10.70;7.15;;;;;;;12.01;98.26;100573.19;5049450;28;20035;-87
2023/08/30 05:03:12;;;;;;;10.15;7.25;;;;;;;12.04;98.43;100569.59;5054063;28;20051;-88
2023/08/30 05:05:37;;;;;;;9.65;7.38;;;;;;;12.06;98.43;100567.81;5048743;28;20022;-87
2023/08/30 05:08:03;;;;;;;13.10;7.78;;;;;;;12.09;98.61;100563.31;5051270;28;20063;-88
2023/08/30 05:10:29;;;;;;;11.02;7.78;;;;;;;12.11;98.71;100560.66;5051411;28;20040;-87
2023/08/30 05:12:54;;;;;;;10.40;7.57;;;;;;;12.12;98.69;100552.78;5048041;28;20084;-87
2023/08/30 05:15:20;;;;;;;9.80;7.78;;;;;;;12.16;98.63;100552.66;5056248;28;20032;-87
2023/08/30 05:17:45;;;;;;;11.75;7.20;;;;;;;12.17;98.56;100550.00;5054561;28;20024;-87
2023/08/30 05:20:11;;;;;;;11.50;7.55;;;;;;;12.18;98.75;100550.84;5055402;28;20057;-86
2023/08/30 05:22:36;;;;;;;10.65;7.10;;;;;;;12.20;98.53;100544.66;5049868;28;20071;-87
2023/08/30 05:25:01;;;;;;;11.18;7.30;;;;;;;12.22;98.69;100548.06;5044756;28;20036;-87
2023/08/30 05:27:27;;;;;;;10.05;7.25;;;;;;;12.25;98.45;100545.34;5044567;28;20045;-87
2023/08/30 05:29:52;;;;;;;10.85;7.07;;;;;;;12.29;98.74;100541.72;5049707;28;20033;-87
2023/08/30 05:32:18;;;;;;;10.38;6.95;;;;;;;12.34;98.54;100551.13;5052569;28;20028;-87
2023/08/30 05:34:43;;;;;;;9.57;6.90;;;;;;;12.38;98.61;100547.50;5059026;28;20507;-87
2023/08/30 05:37:08;;;;;;;10.50;7.25;;;;;;;12.41;98.16;100545.59;5059611;28;20111;-87
2023/08/30 05:39:34;;;;;;;8.25;6.78;;;;;;;12.44;97.80;100540.28;5069202;28;20422;-87
2023/08/30 05:42:00;;;;;;;9.68;7.07;;;;;;;12.45;97.73;100531.53;5050981;28;20029;-87
2023/08/30 05:44:25;;;;;;;9.00;7.03;;;;;;;12.48;97.69;100527.94;5049118;28;20040;-87
2023/08/30 05:46:51;;;;;;;9.27;7.28;;;;;;;12.51;97.50;100522.63;5045187;28;20044;-87
2023/08/30 05:49:16;;;;;;;11.18;7.05;;;;;;;12.54;97.62;100519.91;5044410;28;20143;-87
2023/08/30 05:51:42;;;;;;;9.57;7.20;;;;;;;12.56;97.65;100517.22;5046413;28;20116;-86
2023/08/30 05:54:07;;;;;;;10.85;6.85;;;;;;;12.57;97.64;100519.78;5048514;28;20060;-86
2023/08/30 05:56:32;;;;;;;10.60;6.68;;;;;;;12.59;97.96;100525.78;5048051;28;20071;-87
2023/08/30 05:58:57;;;;;;;9.50;7.00;;;;;;;12.62;97.70;100527.44;5041453;28;20053;-87
2023/08/30 06:01:23;;;;;;;11.60;7.05;;;;;;;12.65;97.55;100529.06;5046863;28;20356;-87
2023/08/30 06:03:48;;;;;;;10.13;6.95;;;;;;;12.68;97.40;100531.53;5043784;28;20033;-87
2023/08/30 06:06:15;;;;;;;8.75;6.75;;;;;;;12.72;97.50;100535.75;5046779;28;20028;-87
2023/08/30 06:08:40;;;;;;;9.90;7.13;;;;;;;12.74;97.87;100523.47;5046720;28;20094;-86
2023/08/30 06:11:06;;;;;;;9.18;6.47;;;;;;;12.77;97.27;100520.75;5046322;28;20488;-87
2023/08/30 06:13:31;;;;;;;9.02;7.13;;;;;;;12.81;97.40;100518.88;5047156;28;20454;-87
2023/08/30 06:15:56;;;;;;;11.15;6.78;;;;;;;12.83;97.21;100522.25;5048172;28;20033;-87
2023/08/30 06:18:21;;;;;;;9.23;6.75;;;;;;;12.87;97.28;100516.00;5047925;28;20483;-87
2023/08/30 06:20:47;;;;;;;8.55;6.78;;;;;;;12.92;96.95;100515.81;5048869;28;20033;-87
2023/08/30 06:23:14;;;;;;;8.30;6.63;;;;;;;12.94;97.06;100514.84;5048394;28;20055;-87
2023/08/30 06:25:39;;;;;;;9.70;6.90;;;;;;;12.97;96.96;100511.28;5047050;28;20116;-87
2023/08/30 06:28:04;;;;;;;9.35;7.20;;;;;;;13.00;97.14;100509.38;5049839;28;20479;-87
2023/08/30 06:30:30;;;;;;;10.40;7.10;;;;;;;13.02;96.79;100510.16;5043734;28;20101;-87
2023/08/30 06:32:56;;;;;;;8.98;6.78;;;;;;;13.05;97.25;100501.34;5047030;28;20087;-88
2023/08/30 06:35:22;;;;;;;8.52;6.72;;;;;;;13.08;96.99;100503.81;5055458;28;20439;-87
2023/08/30 06:37:47;;;;;;;9.50;6.65;;;;;;;13.11;97.09;100508.94;5046703;28;20251;-87
2023/08/30 06:40:12;;;;;;;9.80;6.78;;;;;;;13.13;96.90;100504.50;5046139;28;20028;-87
2023/08/30 06:42:38;;;;;;;9.13;6.68;;;;;;;13.18;96.84;100512.97;5046254;28;20952;-87
2023/08/30 06:45:04;;;;;;;10.15;7.35;;;;;;;13.20;96.88;100505.91;5045696;28;20112;-87
2023/08/30 06:47:29;;;;;;;9.18;7.15;;;;;;;13.23;96.56;100504.97;5048994;28;20024;-87
2023/08/30 06:49:54;;;;;;;9.82;6.95;;;;;;;13.25;96.80;100508.31;5045757;28;20357;-88
2023/08/30 06:52:20;;;;;;;9.77;7.07;;;;;;;13.28;96.14;100523.03;5045655;28;20096;-87
2023/08/30 06:54:45;;;;;;;11.10;7.40;;;;;;;13.28;95.86;100521.25;5046277;28;20440;-87
2023/08/30 06:57:10;;;;;;;9.93;7.03;;;;;;;13.29;96.04;100517.75;5043591;28;20052;-87
2023/08/30 06:59:36;;;;;;;9.45;6.97;;;;;;;13.32;95.79;100535.91;5048539;28;20021;-88
2023/08/30 07:02:02;;;;;;;10.98;7.30;;;;;;;13.34;96.53;100535.81;5048831;28;20047;-87
2023/08/30 07:04:28;;;;;;;10.32;7.03;;;;;;;13.34;96.41;100533.22;5048681;28;20460;-87
2023/08/30 07:06:53;;;;;;;9.57;7.20;;;;;;;13.34;96.98;100530.59;5044417;28;20023;-87
2023/08/30 07:09:18;;;;;;;10.60;7.28;;;;;;;13.34;97.25;100528.00;5050968;28;20029;-88
2023/08/30 07:11:47;;;;;;;10.98;7.20;;;;;;;13.33;97.01;100528.91;5050633;28;20464;-86
2023/08/30 07:14:14;;;;;;;8.57;6.45;;;;;;;13.32;97.58;100529.84;5045021;28;20033;-87
2023/08/30 07:16:39;;;;;;;9.50;6.45;;;;;;;13.29;97.48;100525.56;5046488;28;20025;-88
2023/08/30 07:19:05;;;;;;;8.63;6.68;;;;;;;13.28;97.52;100525.66;5046338;28;20019;-87
2023/08/30 07:21:30;;;;;;;9.10;6.25;;;;;;;13.27;98.06;100518.72;5044604;28;20468;-88
2023/08/30 07:23:55;;;;;;;8.80;6.28;;;;;;;13.26;98.46;100517.03;5046085;28;20384;-87
2023/08/30 07:26:20;;;;;;;9.60;6.20;;;;;;;13.21;99.01;100496.34;5046785;28;20083;-88
2023/08/30 07:28:46;;;;;;;8.35;6.13;;;;;;;13.17;99.44;100490.38;5043023;28;20068;-87
2023/08/30 07:31:14;;;;;;;10.13;6.55;;;;;;;13.15;99.74;100483.53;5047782;28;20082;-88
2023/08/30 07:33:39;;;;;;;10.25;6.53;;;;;;;13.14;100.00;100492.28;5045867;28;20039;-87
2023/08/30 07:36:05;;;;;;;10.95;5.78;;;;;;;13.13;100.00;100487.97;5045750;28;20033;-87
2023/08/30 07:38:30;;;;;;;8.35;6.40;;;;;;;13.10;100.00;100481.13;5048688;28;20453;-86
2023/08/30 07:40:56;;;;;;;10.32;7.03;;;;;;;13.09;100.00;100482.03;5051027;28;20387;-87
2023/08/30 07:43:21;;;;;;;8.30;6.13;;;;;;;13.09;100.00;100473.31;5046731;28;20087;-87
2023/08/30 07:45:47;;;;;;;9.32;6.90;;;;;;;13.08;100.00;100474.25;5047498;28;20197;-87
2023/08/30 07:48:12;;;;;;;8.15;6.03;;;;;;;13.06;100.00;100471.69;5046281;28;20050;-87
2023/08/30 07:50:38;;;;;;;8.57;6.00;;;;;;;13.04;100.00;100477.00;5045486;28;20040;-88
2023/08/30 07:53:03;;;;;;;7.53;6.00;;;;;;;13.04;100.00;100474.38;5047784;28;20029;-87
2023/08/30 07:55:28;;;;;;;9.43;6.28;;;;;;;13.04;100.00;100463.94;5049111;28;20385;-87
2023/08/30 07:57:53;;;;;;;9.38;6.53;;;;;;;13.02;100.00;100470.13;5046792;28;20102;-87
2023/08/30 08:00:19;;;;;;;8.25;5.85;;;;;;;13.01;100.00;100465.81;5047636;28;20071;-87
2023/08/30 08:02:44;;;;;;;7.70;5.88;;;;;;;13.00;100.00;100456.28;5048025;28;20025;-87
2023/08/30 08:05:09;;;;;;;9.95;5.78;;;;;;;12.98;100.00;100452.91;5050926;28;20029;-87
2023/08/30 08:07:39;;;;;;;7.95;5.53;;;;;;;12.98;100.00;100461.59;5045895;28;20033;-87
2023/08/30 08:10:05;;;;;;;7.25;4.95;;;;;;;12.97;100.00;100457.28;5045328;28;20120;-86
2023/08/30 08:12:30;;;;;;;7.85;5.38;;;;;;;12.95;100.00;100459.09;5049637;28;20107;-88
2023/08/30 08:14:55;;;;;;;6.40;4.55;;;;;;;12.97;100.00;100461.66;5049400;28;21446;-88
2023/08/30 08:17:21;;;;;;;7.95;5.05;;;;;;;12.97;100.00;100454.66;5046256;28;20040;-86
2023/08/30 08:19:46;;;;;;;6.45;4.60;;;;;;;12.98;100.00;100448.53;5047323;28;20029;-89
2023/08/30 08:22:11;;;;;;;6.18;4.40;;;;;;;12.97;100.00;100461.66;5048010;28;20032;-87
2023/08/30 08:24:36;;;;;;;6.30;4.65;;;;;;;12.97;100.00;100454.66;5048621;28;20029;-87
2023/08/30 08:27:02;;;;;;;5.30;4.03;;;;;;;12.96;100.00;100455.56;5047711;28;20033;-86
2023/08/30 08:29:28;;;;;;;5.53;3.95;;;;;;;12.95;100.00;100450.44;5051854;28;20447;-87
2023/08/30 08:31:53;;;;;;;5.60;3.75;;;;;;;12.94;100.00;100451.34;5049242;28;20025;-88
2023/08/30 08:34:19;;;;;;;5.30;3.60;;;;;;;12.96;100.00;100455.56;5047449;28;20082;-88
2023/08/30 08:36:44;;;;;;;5.10;3.20;;;;;;;12.98;100.00;100447.69;5052087;28;20028;-86
2023/08/30 08:39:09;;;;;;;5.00;3.05;;;;;;;12.98;100.00;100439.84;5053097;28;20038;-86
2023/08/30 08:41:41;;;;;;;5.40;3.28;;;;;;;12.98;100.00;100442.47;5054038;28;20017;-85
2023/08/30 08:44:08;;;;;;;6.00;3.20;;;;;;;13.00;100.00;100441.47;5053114;28;20383;-86
2023/08/30 08:46:35;;;;;;;5.22;3.10;;;;;;;13.01;100.00;100442.31;5049797;28;20037;-86
2023/08/30 08:49:05;;;;;;;4.25;3.05;;;;;;;13.03;100.00;100445.72;5053011;28;20078;-85
2023/08/30 08:51:34;;;;;;;5.25;3.03;;;;;;;13.03;100.00;100443.97;5050688;28;20035;-85
2023/08/30 08:54:03;;;;;;;3.97;2.80;;;;;;;13.05;100.00;100443.88;5051859;28;20078;-85
2023/08/30 08:56:30;;;;;;;5.30;2.78;;;;;;;13.08;100.00;100442.91;5051359;28;20025;-86
2023/08/30 08:58:56;;;;;;;4.55;3.05;;;;;;;13.08;100.00;100442.91;5049456;28;20041;-86
2023/08/30 09:01:21;;;;;;;4.45;2.95;;;;;;;13.09;100.00;100440.25;5055035;28;20028;-86
2023/08/30 09:03:47;;;;;;;4.28;2.90;;;;;;;13.09;100.00;100432.41;5053847;28;20024;-85
2023/08/30 09:06:15;;;;;;;4.50;3.25;;;;;;;13.11;100.00;100433.19;5054878;28;20067;-85
2023/08/30 09:08:40;;;;;;;5.22;3.30;;;;;;;13.12;100.00;100434.88;5054016;28;20071;-85
2023/08/30 09:11:05;;;;;;;5.20;2.83;;;;;;;13.13;100.00;100436.59;5054640;28;20111;-85
2023/08/30 09:13:31;;;;;;;5.18;3.10;;;;;;;13.14;100.00;100438.28;5063510;28;20495;-84
2023/08/30 09:15:56;;;;;;;4.30;2.85;;;;;;;13.14;100.00;100433.06;5059307;28;20033;-84
2023/08/30 09:18:27;;;;;;;4.20;2.97;;;;;;;13.16;100.00;100433.81;5055258;28;20024;-84
2023/08/30 09:20:52;;;;;;;4.40;2.80;;;;;;;13.21;100.00;100433.66;5051542;28;20503;-85
2023/08/30 09:23:20;;;;;;;4.10;2.83;;;;;;;13.29;100.00;100441.97;5059963;28;20029;-85
2023/08/30 09:25:45;;;;;;;4.10;2.88;;;;;;;13.35;100.00;100446.94;5058473;28;20029;-84
2023/08/30 09:28:11;;;;;;;5.05;3.13;;;;;;;13.39;100.00;100452.88;5058071;28;20028;-85
2023/08/30 09:30:36;;;;;;;4.88;2.88;;;;;;;13.42;100.00;100447.56;5062499;28;20025;-85
2023/08/30 09:33:05;;;;;;;4.28;2.83;;;;;;;13.50;100.00;100434.16;5053585;28;20041;-84
2023/08/30 09:35:31;;;;;;;4.22;2.70;;;;;;;13.63;100.00;100437.91;5051275;28;20112;-86
2023/08/30 09:37:56;;;;;;;3.97;2.90;;;;;;;13.75;100.00;100439.13;5056071;28;20104;-85
2023/08/30 09:40:22;;;;;;;4.55;2.92;;;;;;;13.87;100.00;100442.06;5053741;28;20437;-85
2023/08/30 09:42:48;;;;;;;3.85;3.05;;;;;;;13.98;100.00;100442.44;5053337;28;20078;-85
2023/08/30 09:45:22;;;;;;;3.80;2.88;;;;;;;14.04;100.00;100439.53;5056782;28;20021;-84
2023/08/30 09:47:48;;;;;;;4.22;2.80;;;;;;;14.07;100.00;100434.16;5054061;28;20028;-86
2023/08/30 09:50:18;;;;;;;4.63;2.95;;;;;;;14.09;100.00;100432.31;5053386;28;20414;-86
2023/08/30 09:52:44;;;;;;;3.90;2.78;;;;;;;14.09;100.00;100440.16;5056083;28;20021;-86
2023/08/30 09:55:09;;;;;;;5.40;3.15;;;;;;;14.09;100.00;100436.72;5056057;28;20027;-87
2023/08/30 09:57:35;;;;;;;4.88;3.10;;;;;;;14.08;100.00;100435.03;5053260;28;20094;-86
2023/08/30 10:00:03;;;;;;;4.13;2.85;;;;;;;14.08;100.00;100430.63;5057838;28;20055;-85
2023/08/30 10:02:31;;;;;;;3.92;2.97;;;;;;;14.11;100.00;100440.94;5051034;28;20396;-86
2023/08/30 10:04:57;;;;;;;4.20;2.67;;;;;;;14.10;100.00;100434.03;5051192;28;20032;-85
2023/08/30 10:07:24;;;;;;;4.22;3.05;;;;;;;14.11;100.00;100430.50;5055542;28;20021;-85
2023/08/30 10:09:52;;;;;;;5.32;3.22;;;;;;;14.20;100.00;100433.56;5053009;28;20314;-86
2023/08/30 10:12:21;;;;;;;4.82;3.03;;;;;;;14.30;100.00;100432.22;5056037;28;20403;-84
2023/08/30 10:14:47;;;;;;;4.13;3.17;;;;;;;14.37;100.00;100423.16;5053593;28;20016;-85
2023/08/30 10:17:16;;;;;;;4.72;3.10;;;;;;;14.46;100.00;100423.63;5056712;28;20052;-84
2023/08/30 10:19:43;;;;;;;5.38;3.50;;;;;;;14.55;100.00;100417.94;5054697;28;20021;-86
2023/08/30 10:22:09;;;;;;;5.53;3.40;;;;;;;14.60;100.00;100409.88;5061848;28;20024;-85
2023/08/30 10:24:56;;;;;;;5.80;3.60;;;;;;;14.70;100.00;100411.97;5056722;28;20017;-86
2023/08/30 10:27:22;;;;;;;5.43;3.75;;;;;;;14.80;100.00;100407.13;5049051;28;20025;-87
2023/08/30 10:29:50;;;;;;;5.18;4.40;;;;;;;14.89;100.00;100405.81;5054523;28;20412;-87
2023/08/30 10:32:22;;;;;;;4.65;3.60;;;;;;;14.99;100.00;100409.66;5062279;28;20020;-87
2023/08/30 10:34:51;;;;;;;5.57;4.22;;;;;;;15.12;100.00;100411.66;5051634;28;20036;-86
2023/08/30 10:37:23;;;;;;;5.95;4.07;;;;;;;15.20;100.00;100408.63;5059203;28;20475;-85
2023/08/30 10:39:49;;;;;;;5.95;4.43;;;;;;;15.24;100.00;100404.94;5063143;28;20025;-84
2023/08/30 10:42:16;;;;;;;5.63;4.15;;;;;;;15.28;100.00;100409.91;5047933;28;20105;-84
2023/08/30 10:44:49;;;;;;;5.05;4.30;;;;;;;15.38;100.00;100401.56;5050929;28;20103;-85
2023/08/30 10:47:28;;;;;;;6.50;4.63;;;;;;;15.46;100.00;100399.38;5048149;28;20048;-85
2023/08/30 10:49:57;;;;;;;6.32;4.43;;;;;;;15.55;100.00;100398.88;5047587;28;20025;-85
2023/08/30 10:52:23;;;;;;;6.47;5.10;;;;;;;15.62;98.12;100402.88;5047184;28;20388;-87
2023/08/30 10:54:50;;;;;;;6.50;5.05;;;;;;;15.65;98.04;100401.03;5047056;28;20072;-86
2023/08/30 10:57:19;;;;;;;5.65;4.65;;;;;;;15.67;97.70;100401.78;5052369;28;20419;-86
2023/08/30 11:00:04;;;;;;;6.32;5.15;;;;;;;15.73;98.02;100398.81;5048029;28;20029;-85
2023/08/30 11:02:30;;;;;;;7.03;4.70;;;;;;;15.79;98.59;100390.63;5051734;28;20025;-85
2023/08/30 11:04:57;;;;;;;5.32;4.78;;;;;;;15.88;98.87;100395.41;5049471;28;20388;-86
2023/08/30 11:07:25;;;;;;;4.65;4.10;;;;;;;15.93;97.81;100397.78;5065508;28;20017;-91
2023/08/30 11:09:51;;;;;;;7.88;4.82;;;;;;;15.98;97.66;100395.72;5051343;28;20483;-89
2023/08/30 11:12:18;;;;;;;6.65;4.85;;;;;;;16.04;96.44;100384.88;5051689;28;20036;-88
2023/08/30 11:14:43;;;;;;;7.47;4.72;;;;;;;16.11;96.44;100390.63;5048076;28;20215;-86
2023/08/30 11:17:11;;;;;;;6.20;5.10;;;;;;;16.17;95.82;100392.06;5044507;28;20472;-86